Terminal Aerodrome Forecast
Issued by NWS Twin Cities, MN

Home | Current Version | Previous Version | Text Only | Print | Product List | Glossary On
Versions: 1 2 3 4 5 6 7 8 9 10 11 12 13 14 15 16
431
FTUS43 KMPX 302334
TAFEAU
TAF
KEAU 302334Z 0100/0124 07014G22KT P6SM VCSH SCT020 OVC040
     FM010300 06014G26KT P6SM SHRA OVC015
     FM010500 06015G24KT 6SM -SHRA BR OVC008
     FM010900 06009KT P6SM -RA OVC008
     FM011700 35004KT 4SM -RA BR OVC008
     FM012100 32007KT 6SM -RA BR OVC015=

USA.gov is the U.S. government's official web portal to all federal, state and local government web resources and services.